sensor_id;sensor_type;location;lat;lon;timestamp;pressure;altitude;pressure_sealevel;temperature;humidity
71915;BME280;60387;49.994;14.660;2023-09-19T00:02:07;97107.00;;;22.99;49.76
71915;BME280;60387;49.994;14.660;2023-09-19T00:04:41;97105.81;;;22.97;49.72
71915;BME280;60387;49.994;14.660;2023-09-19T00:07:14;97105.03;;;22.93;49.57
71915;BME280;60387;49.994;14.660;2023-09-19T00:09:47;97103.03;;;22.90;50.04
71915;BME280;60387;49.994;14.660;2023-09-19T00:12:20;97104.59;;;22.87;49.72
71915;BME280;60387;49.994;14.660;2023-09-19T00:14:54;97106.59;;;22.83;49.46
71915;BME280;60387;49.994;14.660;2023-09-19T00:17:27;97110.16;;;22.80;50.25
71915;BME280;60387;49.994;14.660;2023-09-19T00:20:00;97103.06;;;22.76;49.54
71915;BME280;60387;49.994;14.660;2023-09-19T00:22:33;97102.25;;;22.72;49.91
71915;BME280;60387;49.994;14.660;2023-09-19T00:25:07;97100.69;;;22.67;50.30
71915;BME280;60387;49.994;14.660;2023-09-19T00:27:41;97114.47;;;22.64;50.57
71915;BME280;60387;49.994;14.660;2023-09-19T00:30:14;97121.19;;;22.59;50.21
71915;BME280;60387;49.994;14.660;2023-09-19T00:32:48;97119.19;;;22.49;49.47
71915;BME280;60387;49.994;14.660;2023-09-19T00:35:22;97118.81;;;22.51;49.75
71915;BME280;60387;49.994;14.660;2023-09-19T00:37:56;97124.34;;;22.47;49.60
71915;BME280;60387;49.994;14.660;2023-09-19T00:40:29;97118.41;;;22.42;50.56
71915;BME280;60387;49.994;14.660;2023-09-19T00:43:02;97123.94;;;22.42;49.68
71915;BME280;60387;49.994;14.660;2023-09-19T00:45:37;97125.84;;;22.38;49.76
71915;BME280;60387;49.994;14.660;2023-09-19T00:48:10;97127.41;;;22.35;50.00
71915;BME280;60387;49.994;14.660;2023-09-19T00:50:45;97135.31;;;22.33;49.93
71915;BME280;60387;49.994;14.660;2023-09-19T00:53:21;97134.53;;;22.29;49.88
71915;BME280;60387;49.994;14.660;2023-09-19T00:55:55;97130.19;;;22.25;50.59
71915;BME280;60387;49.994;14.660;2023-09-19T00:58:28;97125.03;;;22.23;50.30
71915;BME280;60387;49.994;14.660;2023-09-19T01:01:02;97121.09;;;22.24;50.81
71915;BME280;60387;49.994;14.660;2023-09-19T01:03:37;97126.22;;;22.22;50.42
71915;BME280;60387;49.994;14.660;2023-09-19T01:06:10;97131.34;;;22.20;50.65
71915;BME280;60387;49.994;14.660;2023-09-19T01:08:43;97131.72;;;22.19;50.54
71915;BME280;60387;49.994;14.660;2023-09-19T01:11:24;97136.88;;;22.20;50.36
71915;BME280;60387;49.994;14.660;2023-09-19T01:14:13;97122.25;;;22.16;51.00
71915;BME280;60387;49.994;14.660;2023-09-19T01:17:07;97131.34;;;22.17;51.08
71915;BME280;60387;49.994;14.660;2023-09-19T01:22:57;97130.94;;;22.11;49.84
71915;BME280;60387;49.994;14.660;2023-09-19T01:32:03;97127.72;;;21.92;49.42
71915;BME280;60387;49.994;14.660;2023-09-19T01:35:03;97124.94;;;21.85;49.62
71915;BME280;60387;49.994;14.660;2023-09-19T01:37:36;97124.50;;;21.79;49.68
71915;BME280;60387;49.994;14.660;2023-09-19T01:40:12;97126.84;;;21.74;50.10
71915;BME280;60387;49.994;14.660;2023-09-19T01:42:59;97131.94;;;21.68;50.25
71915;BME280;60387;49.994;14.660;2023-09-19T01:51:06;97119.25;;;21.53;50.46
71915;BME280;60387;49.994;14.660;2023-09-19T01:53:53;97118.06;;;21.54;51.42
71915;BME280;60387;49.994;14.660;2023-09-19T01:56:37;97105.84;;;21.52;51.26
71915;BME280;60387;49.994;14.660;2023-09-19T01:59:15;97107.00;;;21.47;51.50
71915;BME280;60387;49.994;14.660;2023-09-19T02:01:50;97118.81;;;21.51;51.13
71915;BME280;60387;49.994;14.660;2023-09-19T02:04:25;97110.56;;;21.48;51.17
71915;BME280;60387;49.994;14.660;2023-09-19T02:06:59;97123.19;;;21.52;51.42
71915;BME280;60387;49.994;14.660;2023-09-19T02:09:33;97117.66;;;21.52;51.55
71915;BME280;60387;49.994;14.660;2023-09-19T02:12:06;97108.97;;;21.43;51.79
71915;BME280;60387;49.994;14.660;2023-09-19T02:14:39;97122.00;;;21.53;51.71
71915;BME280;60387;49.994;14.660;2023-09-19T02:17:12;97115.28;;;21.51;51.78
71915;BME280;60387;49.994;14.660;2023-09-19T02:19:46;97116.06;;;21.51;52.05
71915;BME280;60387;49.994;14.660;2023-09-19T02:22:19;97109.41;;;21.52;52.00
71915;BME280;60387;49.994;14.660;2023-09-19T02:24:52;97123.94;;;21.53;51.94
71915;BME280;60387;49.994;14.660;2023-09-19T02:27:25;97115.31;;;21.54;52.25
71915;BME280;60387;49.994;14.660;2023-09-19T02:29:59;97120.44;;;21.56;52.21
71915;BME280;60387;49.994;14.660;2023-09-19T02:32:32;97114.50;;;21.54;52.32
71915;BME280;60387;49.994;14.660;2023-09-19T02:35:06;97115.69;;;21.56;51.65
71915;BME280;60387;49.994;14.660;2023-09-19T02:37:39;97114.16;;;21.59;52.70
71915;BME280;60387;49.994;14.660;2023-09-19T02:40:13;97107.44;;;21.60;51.95
71915;BME280;60387;49.994;14.660;2023-09-19T02:42:47;97109.00;;;21.57;53.28
71915;BME280;60387;49.994;14.660;2023-09-19T02:45:21;97103.13;;;21.59;52.53
71915;BME280;60387;49.994;14.660;2023-09-19T02:47:54;97118.50;;;21.63;52.43
71915;BME280;60387;49.994;14.660;2023-09-19T02:50:27;97110.22;;;21.63;52.66
71915;BME280;60387;49.994;14.660;2023-09-19T02:53:01;97107.47;;;21.63;52.97
71915;BME280;60387;49.994;14.660;2023-09-19T02:55:34;97116.97;;;21.66;52.51
71915;BME280;60387;49.994;14.660;2023-09-19T02:58:07;97118.56;;;21.70;53.18
71915;BME280;60387;49.994;14.660;2023-09-19T03:00:41;97114.63;;;21.68;53.30
71915;BME280;60387;49.994;14.660;2023-09-19T03:03:14;97117.38;;;21.71;53.02
71915;BME280;60387;49.994;14.660;2023-09-19T03:05:47;97121.72;;;21.72;52.53
71915;BME280;60387;49.994;14.660;2023-09-19T03:08:21;97112.25;;;21.73;52.64
71915;BME280;60387;49.994;14.660;2023-09-19T03:10:54;97120.16;;;21.75;52.62
71915;BME280;60387;49.994;14.660;2023-09-19T03:13:27;97110.72;;;21.76;52.26
71915;BME280;60387;49.994;14.660;2023-09-19T03:16:00;97102.84;;;21.78;53.04
71915;BME280;60387;49.994;14.660;2023-09-19T03:18:34;97107.94;;;21.76;52.64
71915;BME280;60387;49.994;14.660;2023-09-19T03:21:07;97104.81;;;21.77;53.06
71915;BME280;60387;49.994;14.660;2023-09-19T03:23:41;97103.63;;;21.78;52.63
71915;BME280;60387;49.994;14.660;2023-09-19T03:26:14;97097.72;;;21.80;52.47
71915;BME280;60387;49.994;14.660;2023-09-19T03:28:47;97092.63;;;21.82;52.57
71915;BME280;60387;49.994;14.660;2023-09-19T03:31:20;97098.13;;;21.85;52.63
71915;BME280;60387;49.994;14.660;2023-09-19T03:33:54;97094.22;;;21.86;52.96
71915;BME280;60387;49.994;14.660;2023-09-19T03:36:29;97104.06;;;21.87;53.05
71915;BME280;60387;49.994;14.660;2023-09-19T03:39:02;97093.78;;;21.84;53.20
71915;BME280;60387;49.994;14.660;2023-09-19T03:41:35;97117.06;;;21.90;52.80
71915;BME280;60387;49.994;14.660;2023-09-19T03:44:09;97116.25;;;21.90;52.00
71915;BME280;60387;49.994;14.660;2023-09-19T03:46:42;97104.06;;;21.91;52.49
71915;BME280;60387;49.994;14.660;2023-09-19T03:49:15;97106.84;;;21.94;52.59
71915;BME280;60387;49.994;14.660;2023-09-19T03:51:48;97104.44;;;21.89;52.23
71915;BME280;60387;49.994;14.660;2023-09-19T03:54:22;97117.06;;;21.94;52.24
71915;BME280;60387;49.994;14.660;2023-09-19T03:56:55;97117.88;;;21.94;52.44
71915;BME280;60387;49.994;14.660;2023-09-19T03:59:28;97123.41;;;21.94;51.92
71915;BME280;60387;49.994;14.660;2023-09-19T04:02:01;97115.91;;;21.95;51.93
71915;BME280;60387;49.994;14.660;2023-09-19T04:04:35;97119.03;;;21.97;51.84
71915;BME280;60387;49.994;14.660;2023-09-19T04:07:08;97115.50;;;21.96;52.02
71915;BME280;60387;49.994;14.660;2023-09-19T04:09:41;97123.78;;;21.96;52.50
71915;BME280;60387;49.994;14.660;2023-09-19T04:12:15;97129.69;;;21.95;52.20
71915;BME280;60387;49.994;14.660;2023-09-19T04:14:51;97141.53;;;21.95;51.56
71915;BME280;60387;49.994;14.660;2023-09-19T04:17:24;97148.22;;;21.94;51.66
71915;BME280;60387;49.994;14.660;2023-09-19T04:19:57;97148.22;;;21.94;51.94
71915;BME280;60387;49.994;14.660;2023-09-19T04:22:30;97162.00;;;21.94;52.18
71915;BME280;60387;49.994;14.660;2023-09-19T04:25:04;97160.41;;;21.93;52.34
71915;BME280;60387;49.994;14.660;2023-09-19T04:27:37;97164.75;;;21.94;52.43
71915;BME280;60387;49.994;14.660;2023-09-19T04:30:10;97179.72;;;21.93;51.88
71915;BME280;60387;49.994;14.660;2023-09-19T04:32:44;97173.03;;;21.94;52.46
71915;BME280;60387;49.994;14.660;2023-09-19T04:35:17;97180.13;;;21.92;51.99
71915;BME280;60387;49.994;14.660;2023-09-19T04:37:50;97179.31;;;21.91;51.89
71915;BME280;60387;49.994;14.660;2023-09-19T04:40:24;97181.28;;;21.91;52.06
71915;BME280;60387;49.994;14.660;2023-09-19T04:42:57;97189.16;;;21.92;52.01
71915;BME280;60387;49.994;14.660;2023-09-19T04:45:30;97187.59;;;21.91;52.20
71915;BME280;60387;49.994;14.660;2023-09-19T04:48:04;97189.56;;;21.91;52.29
71915;BME280;60387;49.994;14.660;2023-09-19T04:50:37;97189.56;;;21.87;51.97
71915;BME280;60387;49.994;14.660;2023-09-19T04:53:10;97191.13;;;21.88;52.60
71915;BME280;60387;49.994;14.660;2023-09-19T04:55:44;97195.44;;;21.86;51.81
71915;BME280;60387;49.994;14.660;2023-09-19T04:58:17;97210.81;;;21.87;52.62
71915;BME280;60387;49.994;14.660;2023-09-19T05:00:50;97201.75;;;21.86;52.42
71915;BME280;60387;49.994;14.660;2023-09-19T05:03:23;97202.91;;;21.85;52.87
71915;BME280;60387;49.994;14.660;2023-09-19T05:05:57;97210.78;;;21.83;53.57
71915;BME280;60387;49.994;14.660;2023-09-19T05:08:30;97211.19;;;21.82;52.92
71915;BME280;60387;49.994;14.660;2023-09-19T05:11:03;97202.09;;;21.78;52.45
71915;BME280;60387;49.994;14.660;2023-09-19T05:13:36;97210.75;;;21.80;52.73
71915;BME280;60387;49.994;14.660;2023-09-19T05:16:10;97208.00;;;21.80;53.37
71915;BME280;60387;49.994;14.660;2023-09-19T05:18:43;97225.34;;;21.80;53.01
71915;BME280;60387;49.994;14.660;2023-09-19T05:21:16;97219.47;;;21.82;52.82
71915;BME280;60387;49.994;14.660;2023-09-19T05:23:51;97222.59;;;21.80;53.32
71915;BME280;60387;49.994;14.660;2023-09-19T05:26:25;97223.38;;;21.81;53.33
71915;BME280;60387;49.994;14.660;2023-09-19T05:28:58;97229.28;;;21.79;53.41
71915;BME280;60387;49.994;14.660;2023-09-19T05:31:31;97227.31;;;21.80;54.00
71915;BME280;60387;49.994;14.660;2023-09-19T05:34:04;97227.72;;;21.78;54.36
71915;BME280;60387;49.994;14.660;2023-09-19T05:36:38;97225.72;;;21.75;53.62
71915;BME280;60387;49.994;14.660;2023-09-19T05:39:11;97237.56;;;21.79;54.09
71915;BME280;60387;49.994;14.660;2023-09-19T05:41:44;97231.25;;;21.79;53.57
71915;BME280;60387;49.994;14.660;2023-09-19T05:44:17;97226.91;;;21.78;53.99
71915;BME280;60387;49.994;14.660;2023-09-19T05:46:51;97236.00;;;21.82;53.54
71915;BME280;60387;49.994;14.660;2023-09-19T05:49:24;97232.06;;;21.83;53.97
71915;BME280;60387;49.994;14.660;2023-09-19T05:51:57;97243.84;;;21.80;54.28
71915;BME280;60387;49.994;14.660;2023-09-19T05:54:30;97234.44;;;21.84;53.93
71915;BME280;60387;49.994;14.660;2023-09-19T05:57:04;97246.25;;;21.81;53.94
71915;BME280;60387;49.994;14.660;2023-09-19T05:59:37;97242.31;;;21.86;54.18
71915;BME280;60387;49.994;14.660;2023-09-19T06:02:10;97248.22;;;21.84;54.41
71915;BME280;60387;49.994;14.660;2023-09-19T06:04:44;97250.22;;;21.87;53.85
71915;BME280;60387;49.994;14.660;2023-09-19T06:07:17;97241.53;;;21.89;54.13
71915;BME280;60387;49.994;14.660;2023-09-19T06:09:50;97258.13;;;21.92;53.86
71915;BME280;60387;49.994;14.660;2023-09-19T06:12:23;97262.06;;;21.95;54.00
71915;BME280;60387;49.994;14.660;2023-09-19T06:14:57;97263.25;;;21.94;54.05
71915;BME280;60387;49.994;14.660;2023-09-19T06:17:30;97270.75;;;21.97;54.15
71915;BME280;60387;49.994;14.660;2023-09-19T06:20:07;97268.41;;;21.99;54.25
71915;BME280;60387;49.994;14.660;2023-09-19T06:22:45;97277.09;;;22.01;53.73
71915;BME280;60387;49.994;14.660;2023-09-19T06:25:19;97277.13;;;22.04;53.89
71915;BME280;60387;49.994;14.660;2023-09-19T06:27:53;97289.75;;;22.09;53.92
71915;BME280;60387;49.994;14.660;2023-09-19T06:30:26;97296.88;;;22.13;53.96
71915;BME280;60387;49.994;14.660;2023-09-19T06:32:59;97303.59;;;22.19;53.48
71915;BME280;60387;49.994;14.660;2023-09-19T06:35:33;97292.19;;;22.24;53.40
71915;BME280;60387;49.994;14.660;2023-09-19T06:38:07;97302.88;;;22.29;53.58
71915;BME280;60387;49.994;14.660;2023-09-19T06:40:40;97300.91;;;22.33;53.47
71915;BME280;60387;49.994;14.660;2023-09-19T06:43:13;97299.72;;;22.34;53.75
71915;BME280;60387;49.994;14.660;2023-09-19T06:45:47;97316.34;;;22.41;53.67
71915;BME280;60387;49.994;14.660;2023-09-19T06:48:20;97319.91;;;22.45;53.18
71915;BME280;60387;49.994;14.660;2023-09-19T06:50:53;97325.44;;;22.49;53.50
71915;BME280;60387;49.994;14.660;2023-09-19T06:53:27;97333.38;;;22.54;53.64
71915;BME280;60387;49.994;14.660;2023-09-19T06:56:00;97332.59;;;22.60;53.13
71915;BME280;60387;49.994;14.660;2023-09-19T06:58:33;97342.50;;;22.68;52.98
71915;BME280;60387;49.994;14.660;2023-09-19T07:01:06;97327.16;;;22.74;53.21
71915;BME280;60387;49.994;14.660;2023-09-19T07:03:40;97340.56;;;22.83;52.47
71915;BME280;60387;49.994;14.660;2023-09-19T07:06:13;97338.66;;;22.90;52.52
71915;BME280;60387;49.994;14.660;2023-09-19T07:08:46;97335.91;;;22.97;51.99
71915;BME280;60387;49.994;14.660;2023-09-19T07:11:19;97344.63;;;23.06;52.12
71915;BME280;60387;49.994;14.660;2023-09-19T07:13:53;97335.19;;;23.14;51.91
71915;BME280;60387;49.994;14.660;2023-09-19T07:16:28;97345.47;;;23.24;52.07
71915;BME280;60387;49.994;14.660;2023-09-19T07:19:01;97344.69;;;23.34;51.81
71915;BME280;60387;49.994;14.660;2023-09-19T07:21:34;97337.19;;;23.42;51.21
71915;BME280;60387;49.994;14.660;2023-09-19T07:24:08;97345.88;;;23.47;50.99
71915;BME280;60387;49.994;14.660;2023-09-19T07:26:41;97343.91;;;23.51;50.86
71915;BME280;60387;49.994;14.660;2023-09-19T07:29:14;97355.38;;;23.60;51.11
71915;BME280;60387;49.994;14.660;2023-09-19T07:31:47;97352.63;;;23.67;50.81
71915;BME280;60387;49.994;14.660;2023-09-19T07:34:21;97360.13;;;23.73;50.88
71915;BME280;60387;49.994;14.660;2023-09-19T07:36:54;97353.03;;;23.79;50.31
71915;BME280;60387;49.994;14.660;2023-09-19T07:39:27;97363.66;;;23.81;50.61
71915;BME280;60387;49.994;14.660;2023-09-19T07:42:01;97359.75;;;23.82;50.55
71915;BME280;60387;49.994;14.660;2023-09-19T07:44:37;97371.63;;;23.86;50.13
71915;BME280;60387;49.994;14.660;2023-09-19T07:47:10;97372.81;;;23.92;49.96
71915;BME280;60387;49.994;14.660;2023-09-19T07:49:46;97375.59;;;23.95;49.84
71915;BME280;60387;49.994;14.660;2023-09-19T07:52:20;97379.13;;;24.03;50.02
71915;BME280;60387;49.994;14.660;2023-09-19T07:54:53;97387.81;;;24.05;49.62
71915;BME280;60387;49.994;14.660;2023-09-19T07:57:27;97392.97;;;24.06;49.58
71915;BME280;60387;49.994;14.660;2023-09-19T08:00:00;97396.91;;;24.09;49.41
71915;BME280;60387;49.994;14.660;2023-09-19T08:02:37;97393.72;;;24.10;49.64
71915;BME280;60387;49.994;14.660;2023-09-19T08:05:11;97392.16;;;24.16;49.66
71915;BME280;60387;49.994;14.660;2023-09-19T08:07:45;97389.78;;;24.15;49.34
71915;BME280;60387;49.994;14.660;2023-09-19T08:10:18;97394.53;;;24.21;49.31
71915;BME280;60387;49.994;14.660;2023-09-19T08:12:52;97398.88;;;24.29;49.29
71915;BME280;60387;49.994;14.660;2023-09-19T08:15:25;97396.88;;;24.37;49.00
71915;BME280;60387;49.994;14.660;2023-09-19T08:17:58;97398.44;;;24.41;48.83
71915;BME280;60387;49.994;14.660;2023-09-19T08:20:32;97400.03;;;24.46;48.88
71915;BME280;60387;49.994;14.660;2023-09-19T08:23:05;97402.81;;;24.56;48.62
71915;BME280;60387;49.994;14.660;2023-09-19T08:25:38;97407.91;;;24.72;48.85
71915;BME280;60387;49.994;14.660;2023-09-19T08:28:11;97399.53;;;24.86;48.70
71915;BME280;60387;49.994;14.660;2023-09-19T08:30:45;97407.00;;;25.06;48.40
71915;BME280;60387;49.994;14.660;2023-09-19T08:33:19;97409.31;;;25.22;47.90
71915;BME280;60387;49.994;14.660;2023-09-19T08:35:52;97410.81;;;25.37;47.85
71915;BME280;60387;49.994;14.660;2023-09-19T08:38:25;97415.50;;;25.50;47.46
71915;BME280;60387;49.994;14.660;2023-09-19T08:41:00;97416.94;;;25.69;47.29
71915;BME280;60387;49.994;14.660;2023-09-19T08:43:34;97423.19;;;25.87;46.32
71915;BME280;60387;49.994;14.660;2023-09-19T08:46:11;97428.66;;;26.01;46.52
71915;BME280;60387;49.994;14.660;2023-09-19T08:49:00;97433.31;;;26.11;45.85
71915;BME280;60387;49.994;14.660;2023-09-19T08:51:45;97427.34;;;26.16;45.34
71915;BME280;60387;49.994;14.660;2023-09-19T08:54:24;97428.50;;;26.18;44.83
71915;BME280;60387;49.994;14.660;2023-09-19T08:57:00;97434.06;;;26.18;44.65
71915;BME280;60387;49.994;14.660;2023-09-19T08:59:38;97434.78;;;26.26;44.85
71915;BME280;60387;49.994;14.660;2023-09-19T09:02:12;97433.94;;;26.29;45.09
71915;BME280;60387;49.994;14.660;2023-09-19T09:04:46;97436.28;;;26.37;44.84
71915;BME280;60387;49.994;14.660;2023-09-19T09:07:20;97443.38;;;26.42;44.64
71915;BME280;60387;49.994;14.660;2023-09-19T09:09:54;97434.19;;;26.52;43.44
71915;BME280;60387;49.994;14.660;2023-09-19T09:12:29;97435.31;;;26.58;43.23
71915;BME280;60387;49.994;14.660;2023-09-19T09:15:03;97440.41;;;26.63;43.91
71915;BME280;60387;49.994;14.660;2023-09-19T09:17:37;97443.72;;;26.88;43.66
71915;BME280;60387;49.994;14.660;2023-09-19T09:20:11;97450.09;;;27.22;43.66
71915;BME280;60387;49.994;14.660;2023-09-19T09:22:54;97463.50;;;27.60;43.51
71915;BME280;60387;49.994;14.660;2023-09-19T09:25:50;97455.94;;;27.90;40.73
71915;BME280;60387;49.994;14.660;2023-09-19T09:28:26;97446.00;;;27.89;41.36
71915;BME280;60387;49.994;14.660;2023-09-19T09:31:00;97453.44;;;27.99;40.49
71915;BME280;60387;49.994;14.660;2023-09-19T09:33:34;97460.13;;;28.02;40.76
71915;BME280;60387;49.994;14.660;2023-09-19T09:36:07;97460.09;;;28.05;41.04
71915;BME280;60387;49.994;14.660;2023-09-19T09:38:45;97460.41;;;28.11;41.04
71915;BME280;60387;49.994;14.660;2023-09-19T09:41:19;97459.97;;;28.12;40.84
71915;BME280;60387;49.994;14.660;2023-09-19T09:43:52;97451.63;;;28.12;40.20
71915;BME280;60387;49.994;14.660;2023-09-19T09:46:26;97462.72;;;28.16;40.30
71915;BME280;60387;49.994;14.660;2023-09-19T09:49:01;97456.22;;;28.22;39.93
71915;BME280;60387;49.994;14.660;2023-09-19T09:51:34;97462.50;;;28.30;40.22
71915;BME280;60387;49.994;14.660;2023-09-19T09:54:15;97452.41;;;28.39;40.75
71915;BME280;60387;49.994;14.660;2023-09-19T09:56:58;97454.03;;;28.60;39.56
71915;BME280;60387;49.994;14.660;2023-09-19T09:59:52;97446.81;;;28.85;39.96
71915;BME280;60387;49.994;14.660;2023-09-19T10:02:27;97447.56;;;29.09;38.40
71915;BME280;60387;49.994;14.660;2023-09-19T10:05:12;97435.53;;;29.31;38.99
71915;BME280;60387;49.994;14.660;2023-09-19T10:07:50;97430.06;;;29.44;37.54
71915;BME280;60387;49.994;14.660;2023-09-19T10:10:33;97427.94;;;29.51;37.96
71915;BME280;60387;49.994;14.660;2023-09-19T10:13:10;97442.28;;;29.69;37.91
71915;BME280;60387;49.994;14.660;2023-09-19T10:15:48;97447.16;;;29.85;37.10
71915;BME280;60387;49.994;14.660;2023-09-19T10:18:23;97436.41;;;29.99;36.40
71915;BME280;60387;49.994;14.660;2023-09-19T10:20:56;97450.00;;;30.17;35.47
71915;BME280;60387;49.994;14.660;2023-09-19T10:23:31;97451.59;;;30.18;34.98
71915;BME280;60387;49.994;14.660;2023-09-19T10:26:06;97461.63;;;30.15;34.90
71915;BME280;60387;49.994;14.660;2023-09-19T10:28:39;97465.63;;;30.14;35.92
71915;BME280;60387;49.994;14.660;2023-09-19T10:31:12;97453.41;;;30.24;35.04
71915;BME280;60387;49.994;14.660;2023-09-19T10:33:47;97456.22;;;30.40;34.16
71915;BME280;60387;49.994;14.660;2023-09-19T10:36:24;97458.47;;;30.61;34.99
71915;BME280;60387;49.994;14.660;2023-09-19T10:38:58;97463.72;;;30.75;34.63
71915;BME280;60387;49.994;14.660;2023-09-19T10:41:34;97472.00;;;30.95;34.14
71915;BME280;60387;49.994;14.660;2023-09-19T10:44:07;97454.69;;;31.12;33.89
71915;BME280;60387;49.994;14.660;2023-09-19T10:46:40;97452.91;;;31.34;32.65
71915;BME280;60387;49.994;14.660;2023-09-19T10:49:14;97454.06;;;31.49;33.27
71915;BME280;60387;49.994;14.660;2023-09-19T10:51:49;97462.53;;;31.74;32.91
71915;BME280;60387;49.994;14.660;2023-09-19T10:54:26;97450.69;;;32.07;31.26
71915;BME280;60387;49.994;14.660;2023-09-19T10:57:01;97464.94;;;32.25;31.99
71915;BME280;60387;49.994;14.660;2023-09-19T10:59:34;97466.16;;;32.37;31.44
71915;BME280;60387;49.994;14.660;2023-09-19T11:02:17;97455.16;;;32.42;31.18
71915;BME280;60387;49.994;14.660;2023-09-19T11:04:51;97463.16;;;32.31;31.22
71915;BME280;60387;49.994;14.660;2023-09-19T11:07:24;97460.88;;;32.01;30.61
71915;BME280;60387;49.994;14.660;2023-09-19T11:09:57;97464.78;;;31.79;31.74
71915;BME280;60387;49.994;14.660;2023-09-19T11:15:04;97459.81;;;31.58;32.62
71915;BME280;60387;49.994;14.660;2023-09-19T11:17:41;97463.47;;;31.55;32.61
71915;BME280;60387;49.994;14.660;2023-09-19T11:20:18;97460.53;;;31.46;31.70
71915;BME280;60387;49.994;14.660;2023-09-19T11:30:42;97446.97;;;31.32;31.45
71915;BME280;60387;49.994;14.660;2023-09-19T11:46:33;97453.25;;;32.02;29.26
71915;BME280;60387;49.994;14.660;2023-09-19T11:49:08;97458.66;;;32.09;29.24
71915;BME280;60387;49.994;14.660;2023-09-19T11:51:43;97454.97;;;32.24;29.92
71915;BME280;60387;49.994;14.660;2023-09-19T11:54:16;97452.16;;;32.24;28.29
71915;BME280;60387;49.994;14.660;2023-09-19T11:56:53;97459.41;;;32.09;29.65
71915;BME280;60387;49.994;14.660;2023-09-19T11:59:28;97457.19;;;31.92;30.13
71915;BME280;60387;49.994;14.660;2023-09-19T12:02:06;97454.81;;;31.78;29.73
71915;BME280;60387;49.994;14.660;2023-09-19T12:04:42;97451.75;;;31.60;29.33
71915;BME280;60387;49.994;14.660;2023-09-19T12:07:15;97450.91;;;31.47;28.91
71915;BME280;60387;49.994;14.660;2023-09-19T12:09:51;97454.31;;;31.54;29.19
71915;BME280;60387;49.994;14.660;2023-09-19T12:12:35;97455.94;;;31.80;28.94
71915;BME280;60387;49.994;14.660;2023-09-19T12:15:08;97447.09;;;32.07;29.03
71915;BME280;60387;49.994;14.660;2023-09-19T12:17:42;97446.13;;;32.26;28.55
71915;BME280;60387;49.994;14.660;2023-09-19T12:20:15;97454.28;;;32.33;27.86
71915;BME280;60387;49.994;14.660;2023-09-19T12:22:48;97450.91;;;32.25;28.98
71915;BME280;60387;49.994;14.660;2023-09-19T12:25:22;97448.31;;;32.18;29.31
71915;BME280;60387;49.994;14.660;2023-09-19T12:27:55;97450.13;;;32.25;29.39
71915;BME280;60387;49.994;14.660;2023-09-19T12:30:28;97446.97;;;32.48;30.18
71915;BME280;60387;49.994;14.660;2023-09-19T12:33:02;97445.91;;;32.67;27.65
71915;BME280;60387;49.994;14.660;2023-09-19T12:35:35;97441.09;;;32.80;27.24
71915;BME280;60387;49.994;14.660;2023-09-19T12:38:08;97445.34;;;32.84;26.16
71915;BME280;60387;49.994;14.660;2023-09-19T12:40:42;97437.34;;;32.83;27.02
71915;BME280;60387;49.994;14.660;2023-09-19T12:43:15;97440.97;;;32.71;26.94
71915;BME280;60387;49.994;14.660;2023-09-19T12:45:48;97443.59;;;32.53;26.58
71915;BME280;60387;49.994;14.660;2023-09-19T12:48:25;97436.00;;;32.28;26.86
71915;BME280;60387;49.994;14.660;2023-09-19T12:51:06;97439.34;;;31.98;27.92
71915;BME280;60387;49.994;14.660;2023-09-19T12:53:42;97442.69;;;31.81;27.99
71915;BME280;60387;49.994;14.660;2023-09-19T12:56:16;97442.28;;;31.82;28.63
71915;BME280;60387;49.994;14.660;2023-09-19T13:01:26;97424.88;;;32.12;28.03
71915;BME280;60387;49.994;14.660;2023-09-19T13:04:16;97433.16;;;32.16;27.63
71915;BME280;60387;49.994;14.660;2023-09-19T13:06:50;97446.97;;;32.10;26.98
71915;BME280;60387;49.994;14.660;2023-09-19T13:09:23;97443.63;;;32.03;27.42
71915;BME280;60387;49.994;14.660;2023-09-19T13:11:57;97434.78;;;32.04;27.55
71915;BME280;60387;49.994;14.660;2023-09-19T13:14:30;97430.94;;;32.11;27.50
71915;BME280;60387;49.994;14.660;2023-09-19T13:17:05;97428.25;;;32.20;27.24
71915;BME280;60387;49.994;14.660;2023-09-19T13:19:46;97434.63;;;32.33;27.00
71915;BME280;60387;49.994;14.660;2023-09-19T13:22:41;97422.53;;;32.36;25.98
71915;BME280;60387;49.994;14.660;2023-09-19T13:25:16;97418.94;;;32.10;25.41
71915;BME280;60387;49.994;14.660;2023-09-19T13:27:54;97426.81;;;32.03;24.65
71915;BME280;60387;49.994;14.660;2023-09-19T13:30:28;97422.66;;;31.95;25.68
71915;BME280;60387;49.994;14.660;2023-09-19T13:33:09;97421.53;;;31.92;24.69
71915;BME280;60387;49.994;14.660;2023-09-19T13:35:43;97420.06;;;31.88;26.30
71915;BME280;60387;49.994;14.660;2023-09-19T13:38:16;97420.19;;;31.84;26.37
71915;BME280;60387;49.994;14.660;2023-09-19T13:40:49;97414.25;;;31.82;25.84
71915;BME280;60387;49.994;14.660;2023-09-19T13:43:22;97412.56;;;31.85;24.75
71915;BME280;60387;49.994;14.660;2023-09-19T13:45:56;97423.44;;;31.83;24.22
71915;BME280;60387;49.994;14.660;2023-09-19T13:48:29;97418.59;;;31.71;24.29
71915;BME280;60387;49.994;14.660;2023-09-19T13:51:03;97432.13;;;31.60;25.29
71915;BME280;60387;49.994;14.660;2023-09-19T13:53:36;97427.41;;;31.57;25.31
71915;BME280;60387;49.994;14.660;2023-09-19T13:56:09;97426.63;;;31.56;24.80
71915;BME280;60387;49.994;14.660;2023-09-19T13:58:42;97430.44;;;31.50;25.05
71915;BME280;60387;49.994;14.660;2023-09-19T14:01:16;97431.88;;;31.42;24.66
71915;BME280;60387;49.994;14.660;2023-09-19T14:03:49;97435.06;;;31.28;24.89
71915;BME280;60387;49.994;14.660;2023-09-19T14:06:22;97426.66;;;31.16;25.43
71915;BME280;60387;49.994;14.660;2023-09-19T14:08:55;97419.41;;;31.02;24.63
71915;BME280;60387;49.994;14.660;2023-09-19T14:11:29;97422.59;;;30.88;25.10